createdAt,value
2022-10-13T00:01:19.258Z,2.87
2022-10-13T00:03:48.989Z,3.00
2022-10-13T00:06:44.869Z,3.80
2022-10-13T00:09:09.471Z,2.40
2022-10-13T00:11:37.873Z,2.90
2022-10-13T00:14:06.616Z,2.50
2022-10-13T00:16:35.556Z,2.60
2022-10-13T00:19:05.055Z,2.73
2022-10-13T00:21:41.373Z,2.80
2022-10-13T00:24:12.096Z,2.10
2022-10-13T00:26:40.264Z,3.40
2022-10-13T00:29:08.676Z,2.30
2022-10-13T00:31:38.116Z,3.10
2022-10-13T00:34:07.526Z,2.60
2022-10-13T00:36:47.208Z,2.50
2022-10-13T00:39:15.597Z,2.70
2022-10-13T00:41:44.035Z,3.20
2022-10-13T00:44:45.418Z,2.80
2022-10-13T00:47:13.510Z,2.90
2022-10-13T00:49:42.962Z,2.67
2022-10-13T00:52:11.102Z,2.90
2022-10-13T00:54:39.420Z,2.60
2022-10-13T00:57:08.849Z,2.80
2022-10-13T00:59:39.394Z,2.97
2022-10-13T01:02:08.242Z,2.70
2022-10-13T01:04:41.239Z,3.03
2022-10-13T01:07:10.837Z,2.80
2022-10-13T01:09:38.865Z,2.63
2022-10-13T01:12:18.920Z,2.93
2022-10-13T01:14:53.799Z,2.90
2022-10-13T01:17:31.900Z,2.80
2022-10-13T01:20:27.232Z,2.70
2022-10-13T01:23:12.590Z,2.80
2022-10-13T01:25:57.325Z,3.03
2022-10-13T01:28:52.979Z,3.90
2022-10-13T01:31:29.373Z,2.80
2022-10-13T01:34:03.606Z,2.87
2022-10-13T01:36:38.538Z,3.20
2022-10-13T01:39:10.949Z,2.77
2022-10-13T01:41:41.356Z,3.37
2022-10-13T01:44:16.641Z,3.03
2022-10-13T01:46:48.859Z,3.03
2022-10-13T01:49:20.149Z,2.60
2022-10-13T01:51:49.933Z,3.07
2022-10-13T01:54:18.128Z,3.50
2022-10-13T01:56:54.565Z,3.17
2022-10-13T01:59:26.026Z,3.20
2022-10-13T02:02:04.732Z,3.63
2022-10-13T02:04:46.621Z,3.10
2022-10-13T02:07:21.556Z,3.30
2022-10-13T02:09:59.138Z,3.70
2022-10-13T02:12:31.534Z,3.10
2022-10-13T02:15:01.845Z,4.03
2022-10-13T02:17:33.290Z,3.00
2022-10-13T02:20:01.564Z,3.00
2022-10-13T02:22:35.463Z,2.80
2022-10-13T02:25:03.669Z,3.27
2022-10-13T02:27:31.798Z,3.23
2022-10-13T02:29:59.882Z,3.60
2022-10-13T02:32:30.916Z,3.80
2022-10-13T02:34:59.030Z,3.30
2022-10-13T02:37:27.685Z,4.43
2022-10-13T02:39:55.665Z,3.10
2022-10-13T02:42:23.859Z,3.33
2022-10-13T02:44:55.874Z,3.50
2022-10-13T02:47:24.117Z,3.13
2022-10-13T02:49:53.691Z,3.80
2022-10-13T02:52:22.407Z,3.80
2022-10-13T02:54:50.544Z,3.77
2022-10-13T02:57:19.283Z,3.67
2022-10-13T02:59:49.087Z,4.03
2022-10-13T03:02:17.512Z,4.10
2022-10-13T03:04:46.014Z,4.23
2022-10-13T03:07:15.543Z,4.00
2022-10-13T03:09:43.616Z,4.17
2022-10-13T03:12:11.831Z,3.87
2022-10-13T03:14:40.508Z,4.33
2022-10-13T03:17:13.162Z,4.23
2022-10-13T03:19:41.643Z,4.27
2022-10-13T03:22:09.640Z,4.90
2022-10-13T03:24:39.078Z,4.10
2022-10-13T03:27:07.283Z,4.30
2022-10-13T03:29:35.352Z,4.40
2022-10-13T03:32:04.763Z,4.03
2022-10-13T03:34:32.976Z,4.90
2022-10-13T03:37:01.082Z,5.07
2022-10-13T03:39:29.342Z,4.53
2022-10-13T03:41:58.784Z,4.20
2022-10-13T03:44:26.807Z,4.30
2022-10-13T03:46:54.854Z,4.73
2022-10-13T03:49:22.882Z,5.10
2022-10-13T03:51:51.108Z,5.17
2022-10-13T03:54:19.975Z,5.40
2022-10-13T03:56:48.059Z,4.83
2022-10-13T03:59:18.705Z,5.23
2022-10-13T04:01:46.946Z,4.93
2022-10-13T04:04:15.260Z,5.37
2022-10-13T04:06:43.963Z,4.83
2022-10-13T04:09:12.070Z,5.83
2022-10-13T04:11:40.239Z,4.70
2022-10-13T04:14:08.542Z,5.63
2022-10-13T04:16:39.794Z,5.10
2022-10-13T04:19:08.677Z,5.20
2022-10-13T04:21:36.975Z,5.10
2022-10-13T04:24:06.475Z,6.00
2022-10-13T04:26:36.656Z,4.90
2022-10-13T04:29:06.834Z,5.27
2022-10-13T04:31:38.375Z,5.23
2022-10-13T04:34:14.752Z,5.90
2022-10-13T04:36:43.391Z,5.60
2022-10-13T04:39:11.470Z,5.30
2022-10-13T04:41:39.794Z,5.80
2022-10-13T04:44:07.917Z,5.60
2022-10-13T04:46:37.785Z,5.60
2022-10-13T04:49:17.922Z,6.00
2022-10-13T04:51:46.434Z,5.57
2022-10-13T04:54:14.853Z,6.20
2022-10-13T04:56:45.023Z,5.30
2022-10-13T04:59:13.183Z,5.40
2022-10-13T05:01:42.659Z,5.67
2022-10-13T05:04:12.147Z,5.30
2022-10-13T05:07:05.489Z,5.53
2022-10-13T05:09:30.819Z,5.37
2022-10-13T05:11:58.944Z,5.47
2022-10-13T05:14:27.222Z,5.37
2022-10-13T05:16:59.247Z,5.50
2022-10-13T05:19:27.514Z,5.07
2022-10-13T05:21:55.655Z,5.93
2022-10-13T05:24:36.634Z,4.53
2022-10-13T05:27:06.490Z,5.90
2022-10-13T05:29:34.817Z,4.73
2022-10-13T05:32:04.943Z,5.13
2022-10-13T05:34:34.944Z,5.30
2022-10-13T05:37:03.232Z,4.67
2022-10-13T05:39:31.378Z,4.50
2022-10-13T05:41:59.451Z,4.37
2022-10-13T05:44:27.872Z,4.70
2022-10-13T05:46:56.030Z,4.70
2022-10-13T05:49:25.737Z,5.00
2022-10-13T05:52:09.705Z,4.60
2022-10-13T05:54:41.386Z,4.27
2022-10-13T05:57:13.736Z,4.27
2022-10-13T05:59:46.403Z,5.00
2022-10-13T06:02:16.313Z,4.27
2022-10-13T06:04:49.766Z,4.87
2022-10-13T06:07:35.768Z,4.13
2022-10-13T06:10:03.884Z,4.07
2022-10-13T06:12:32.315Z,4.07
2022-10-13T06:15:00.337Z,4.67
2022-10-13T06:17:28.365Z,3.90
2022-10-13T06:19:57.820Z,4.70
2022-10-13T06:22:25.957Z,3.97
2022-10-13T06:24:54.013Z,4.97
2022-10-13T06:27:22.147Z,4.17
2022-10-13T06:29:50.201Z,4.10
2022-10-13T06:32:18.781Z,4.70
2022-10-13T06:34:47.472Z,4.27
2022-10-13T06:37:17.081Z,4.57
2022-10-13T06:39:45.154Z,4.17
2022-10-13T06:42:13.206Z,3.97
2022-10-13T06:44:42.061Z,4.33
2022-10-13T06:47:10.293Z,3.43
2022-10-13T06:49:38.317Z,4.00
2022-10-13T06:52:06.958Z,4.03
2022-10-13T06:54:38.992Z,3.90
2022-10-13T06:57:07.707Z,3.60
2022-10-13T06:59:36.150Z,3.87
2022-10-13T07:02:04.162Z,3.97
2022-10-13T07:04:32.395Z,3.87
2022-10-13T07:07:00.487Z,3.90
2022-10-13T07:09:29.504Z,3.47
2022-10-13T07:11:59.273Z,3.47
2022-10-13T07:14:27.497Z,3.77
2022-10-13T07:16:55.858Z,3.90
2022-10-13T07:19:25.440Z,3.97
2022-10-13T07:21:53.921Z,3.20
2022-10-13T07:24:22.201Z,3.30
2022-10-13T07:26:50.477Z,3.67
2022-10-13T07:29:20.006Z,3.70
2022-10-13T07:31:48.769Z,3.23
2022-10-13T07:34:18.234Z,3.30
2022-10-13T07:36:46.252Z,3.23
2022-10-13T07:39:14.345Z,3.57
2022-10-13T07:41:42.458Z,3.40
2022-10-13T07:44:10.482Z,2.63
2022-10-13T07:46:39.976Z,2.83
2022-10-13T07:49:10.132Z,3.10
2022-10-13T07:51:40.650Z,3.13
2022-10-13T07:54:08.901Z,3.40
2022-10-13T07:56:37.281Z,3.27
2022-10-13T07:59:05.586Z,2.90
2022-10-13T08:01:33.792Z,3.67
2022-10-13T08:04:03.705Z,3.83
2022-10-13T08:06:31.799Z,3.03
2022-10-13T08:09:00.719Z,3.13
2022-10-13T08:11:29.234Z,3.47
2022-10-13T08:14:01.008Z,3.20
2022-10-13T08:16:29.897Z,3.13
2022-10-13T08:18:59.005Z,3.23
2022-10-13T08:21:56.934Z,3.40
2022-10-13T08:24:19.565Z,3.50
2022-10-13T08:26:48.112Z,3.60
2022-10-13T08:29:21.818Z,3.67
2022-10-13T08:31:51.508Z,3.40
2022-10-13T08:34:21.221Z,3.70
2022-10-13T08:36:53.374Z,3.40
2022-10-13T08:39:22.646Z,4.03
2022-10-13T08:41:51.312Z,3.77
2022-10-13T08:47:25.664Z,3.60
2022-10-13T08:49:59.127Z,3.53
2022-10-13T08:52:44.833Z,3.83
2022-10-13T08:55:21.867Z,4.10
2022-10-13T08:57:50.121Z,3.40
2022-10-13T09:00:23.970Z,3.67
2022-10-13T09:02:53.169Z,3.00
2022-10-13T09:05:34.233Z,4.07
2022-10-13T09:08:05.398Z,3.70
2022-10-13T09:10:33.537Z,3.80
2022-10-13T09:13:01.736Z,3.30
2022-10-13T09:15:30.671Z,4.17
2022-10-13T09:18:11.953Z,2.93
2022-10-13T09:20:40.163Z,3.07
2022-10-13T09:23:20.574Z,3.83
2022-10-13T09:25:50.587Z,3.73
2022-10-13T09:28:22.804Z,3.63
2022-10-13T09:31:02.577Z,3.53
2022-10-13T09:33:30.892Z,3.50
2022-10-13T09:36:15.495Z,3.60
2022-10-13T09:39:06.543Z,3.03
2022-10-13T09:41:36.028Z,3.60
2022-10-13T09:44:14.075Z,3.20
2022-10-13T09:46:49.702Z,3.03
2022-10-13T09:49:31.313Z,2.77
2022-10-13T09:52:04.230Z,2.90
2022-10-13T09:54:45.483Z,3.20
2022-10-13T09:57:21.073Z,3.17
2022-10-13T09:59:51.866Z,2.87
2022-10-13T10:02:34.190Z,3.67
2022-10-13T10:05:07.703Z,3.50
2022-10-13T10:07:35.934Z,2.73
2022-10-13T10:10:13.997Z,2.80
2022-10-13T10:12:44.450Z,2.80
2022-10-13T10:15:22.445Z,2.83
2022-10-13T10:17:57.272Z,2.60
2022-10-13T10:20:55.233Z,2.67
2022-10-13T10:23:34.711Z,2.63
2022-10-13T10:26:18.182Z,2.60
2022-10-13T10:29:17.187Z,2.20
2022-10-13T10:32:04.987Z,2.50
2022-10-13T10:34:39.384Z,3.00
2022-10-13T10:37:36.101Z,2.63
2022-10-13T10:40:17.386Z,2.40
2022-10-13T10:43:25.513Z,2.70
2022-10-13T10:45:58.179Z,2.10
2022-10-13T10:48:28.011Z,2.53
2022-10-13T10:50:56.475Z,2.70
2022-10-13T10:53:35.374Z,2.30
2022-10-13T10:56:14.372Z,2.70
2022-10-13T10:58:52.003Z,2.83
2022-10-13T11:01:32.715Z,2.80
2022-10-13T11:04:26.668Z,2.17
2022-10-13T11:06:54.936Z,2.47
2022-10-13T11:09:57.469Z,2.57
2022-10-13T11:12:46.687Z,2.73
2022-10-13T11:15:23.830Z,2.63
2022-10-13T11:17:52.460Z,2.73
2022-10-13T11:20:58.560Z,2.67
2022-10-13T11:23:34.754Z,2.87
2022-10-13T11:26:29.935Z,2.50
2022-10-13T11:28:58.493Z,2.87
2022-10-13T11:31:35.954Z,2.43
2022-10-13T11:34:05.680Z,2.30
2022-10-13T11:36:57.043Z,3.13
2022-10-13T11:40:01.876Z,2.83
2022-10-13T11:43:14.189Z,2.83
2022-10-13T11:46:21.017Z,2.00
2022-10-13T11:49:19.476Z,2.80
2022-10-13T11:52:28.485Z,2.50
2022-10-13T11:55:03.599Z,2.73
2022-10-13T11:57:32.930Z,2.07
2022-10-13T12:00:01.019Z,2.50
2022-10-13T12:02:29.744Z,2.63
2022-10-13T12:05:05.597Z,2.30
2022-10-13T12:07:37.622Z,3.00
2022-10-13T12:10:09.894Z,2.90
2022-10-13T12:12:38.469Z,2.60
2022-10-13T12:15:32.826Z,2.20
2022-10-13T12:18:01.260Z,2.70
2022-10-13T12:20:33.020Z,2.27
2022-10-13T12:23:01.907Z,2.97
2022-10-13T12:25:33.813Z,3.23
2022-10-13T12:28:02.315Z,2.33
2022-10-13T12:30:36.056Z,2.23
2022-10-13T12:33:19.090Z,2.40
2022-10-13T12:35:48.791Z,2.90
2022-10-13T12:38:20.637Z,2.70
2022-10-13T12:40:50.282Z,2.60
2022-10-13T12:43:21.658Z,2.50
2022-10-13T12:45:49.781Z,2.50
2022-10-13T12:48:32.253Z,2.30
2022-10-13T12:51:16.856Z,2.50
2022-10-13T12:53:45.847Z,2.40
2022-10-13T12:56:30.674Z,2.73
2022-10-13T12:58:59.533Z,2.30
2022-10-13T13:01:33.259Z,2.53
2022-10-13T13:04:03.754Z,2.83
2022-10-13T13:06:36.073Z,2.53
2022-10-13T13:09:32.144Z,2.57
2022-10-13T13:12:19.716Z,2.37
2022-10-13T13:14:49.688Z,3.27
2022-10-13T13:17:45.736Z,2.57
2022-10-13T13:20:23.467Z,2.20
2022-10-13T13:22:53.262Z,2.63
2022-10-13T13:25:21.460Z,2.47
2022-10-13T13:27:50.297Z,3.07
2022-10-13T13:30:21.641Z,2.83
2022-10-13T13:32:51.250Z,2.47
2022-10-13T13:35:20.157Z,2.93
2022-10-13T13:37:51.181Z,3.10
2022-10-13T13:40:23.572Z,2.33
2022-10-13T13:42:52.047Z,2.53
2022-10-13T13:45:24.616Z,2.77
2022-10-13T13:47:54.183Z,2.87
2022-10-13T13:50:27.458Z,2.37
2022-10-13T13:52:55.909Z,2.60
2022-10-13T13:55:26.283Z,2.57
2022-10-13T13:57:54.396Z,2.37
2022-10-13T14:00:23.399Z,2.23
2022-10-13T14:02:52.062Z,2.60
2022-10-13T14:05:20.429Z,2.70
2022-10-13T14:07:48.698Z,3.27
2022-10-13T14:10:16.976Z,3.43
2022-10-13T14:12:46.585Z,2.93
2022-10-13T14:15:16.179Z,2.83
2022-10-13T14:17:44.420Z,2.60
2022-10-13T14:20:13.211Z,2.67
2022-10-13T14:22:42.090Z,3.00
2022-10-13T14:25:11.170Z,3.03
2022-10-13T14:27:39.678Z,3.03
2022-10-13T14:30:10.338Z,2.67
2022-10-13T14:32:40.247Z,2.93
2022-10-13T14:35:09.860Z,3.03
2022-10-13T14:37:38.478Z,2.93
2022-10-13T14:40:07.647Z,2.60
2022-10-13T14:42:35.848Z,2.63
2022-10-13T14:45:06.493Z,2.83
2022-10-13T14:47:36.261Z,2.50
2022-10-13T14:50:05.189Z,2.37
2022-10-13T14:52:33.802Z,2.67
2022-10-13T14:55:01.946Z,2.70
2022-10-13T14:57:30.325Z,2.63
2022-10-13T15:00:01.855Z,2.50
2022-10-13T15:02:30.892Z,3.23
2022-10-13T15:05:00.690Z,2.70
2022-10-13T15:07:28.874Z,3.00
2022-10-13T15:10:05.855Z,3.10
2022-10-13T15:12:37.412Z,3.27
2022-10-13T15:15:06.444Z,2.67
2022-10-13T15:17:34.789Z,2.80
2022-10-13T15:20:05.717Z,2.73
2022-10-13T15:22:36.498Z,2.70
2022-10-13T15:25:08.065Z,2.77
2022-10-13T15:27:42.085Z,2.87
2022-10-13T15:30:19.665Z,3.20
2022-10-13T15:32:51.367Z,3.30
2022-10-13T15:35:21.260Z,3.60
2022-10-13T15:37:49.372Z,2.60
2022-10-13T15:40:17.378Z,2.63
2022-10-13T15:42:45.452Z,2.70
2022-10-13T15:45:13.713Z,2.70
2022-10-13T15:47:43.055Z,2.70
2022-10-13T15:50:12.975Z,3.10
2022-10-13T15:52:42.820Z,3.33
2022-10-13T15:55:12.512Z,3.40
2022-10-13T15:57:41.802Z,2.93
2022-10-13T16:00:13.943Z,2.87
2022-10-13T16:02:42.600Z,2.90
2022-10-13T16:05:12.725Z,3.33
2022-10-13T16:07:42.773Z,2.80
2022-10-13T16:10:13.477Z,2.97
2022-10-13T16:12:48.378Z,3.33
2022-10-13T16:15:18.687Z,3.17
2022-10-13T16:17:47.285Z,3.70
2022-10-13T16:20:15.642Z,2.80
2022-10-13T16:22:45.251Z,2.73
2022-10-13T16:25:13.526Z,3.33
2022-10-13T16:27:44.624Z,3.13
2022-10-13T16:30:14.162Z,3.13
2022-10-13T16:32:42.918Z,2.87
2022-10-13T16:35:11.865Z,3.40
2022-10-13T16:37:40.477Z,3.30
2022-10-13T16:40:11.366Z,3.17
2022-10-13T16:42:39.511Z,2.90
2022-10-13T16:45:11.065Z,3.43
2022-10-13T16:47:39.253Z,3.10
2022-10-13T16:50:09.873Z,3.20
2022-10-13T16:52:38.498Z,2.90
2022-10-13T16:55:08.063Z,3.20
2022-10-13T16:57:37.877Z,3.33
2022-10-13T17:00:07.166Z,3.50
2022-10-13T17:02:36.599Z,3.37
2022-10-13T17:05:04.904Z,3.23
2022-10-13T17:07:33.212Z,3.30
2022-10-13T17:10:03.168Z,3.17
2022-10-13T17:12:31.510Z,3.30
2022-10-13T17:15:00.965Z,2.90
2022-10-13T17:17:29.254Z,3.37
2022-10-13T17:19:57.406Z,2.90
2022-10-13T17:22:25.625Z,3.13
2022-10-13T17:24:53.749Z,3.50
2022-10-13T17:27:22.318Z,3.33
2022-10-13T17:29:53.148Z,2.90
2022-10-13T17:32:24.217Z,3.23
2022-10-13T17:34:52.721Z,3.27
2022-10-13T17:37:21.142Z,3.57
2022-10-13T17:39:49.487Z,3.00
2022-10-13T17:42:17.610Z,3.30
2022-10-13T17:44:45.654Z,2.83
2022-10-13T17:47:13.911Z,3.50
2022-10-13T17:49:43.410Z,3.00
2022-10-13T17:52:11.490Z,3.20
2022-10-13T17:54:39.526Z,3.20
2022-10-13T17:57:08.448Z,3.10
2022-10-13T17:59:36.902Z,3.50
2022-10-13T18:02:05.047Z,3.80
2022-10-13T18:04:35.797Z,3.50
2022-10-13T18:07:05.379Z,3.30
2022-10-13T18:09:33.594Z,3.07
2022-10-13T18:12:02.291Z,3.97
2022-10-13T18:14:30.566Z,3.20
2022-10-13T18:16:58.680Z,3.47
2022-10-13T18:19:26.744Z,3.30
2022-10-13T18:22:06.724Z,3.97
2022-10-13T18:24:36.720Z,3.20
2022-10-13T18:27:05.117Z,3.67
2022-10-13T18:29:33.450Z,3.47
2022-10-13T18:32:02.281Z,3.00
2022-10-13T18:34:30.353Z,3.47
2022-10-13T18:36:58.533Z,3.77
2022-10-13T18:39:28.102Z,3.40
2022-10-13T18:41:58.799Z,4.00
2022-10-13T18:44:27.241Z,3.70
2022-10-13T18:46:56.606Z,4.07
2022-10-13T18:49:31.226Z,3.80
2022-10-13T18:52:00.181Z,3.43
2022-10-13T18:54:29.069Z,3.93
2022-10-13T18:56:58.978Z,3.80
2022-10-13T18:59:30.101Z,3.70
2022-10-13T19:01:58.297Z,4.07
2022-10-13T19:04:26.790Z,3.70
2022-10-13T19:06:54.903Z,3.80
2022-10-13T19:09:24.924Z,4.13
2022-10-13T19:11:53.387Z,3.50
2022-10-13T19:14:22.994Z,4.20
2022-10-13T19:16:51.113Z,3.80
2022-10-13T19:19:20.133Z,3.97
2022-10-13T19:21:48.318Z,3.70
2022-10-13T19:24:16.483Z,4.40
2022-10-13T19:26:44.642Z,3.70
2022-10-13T19:29:16.159Z,3.40
2022-10-13T19:31:47.330Z,3.10
2022-10-13T19:34:15.546Z,3.63
2022-10-13T19:36:45.732Z,4.13
2022-10-13T19:39:16.320Z,3.73
2022-10-13T19:41:45.666Z,3.33
2022-10-13T19:44:14.765Z,3.83
2022-10-13T19:46:44.700Z,3.60
2022-10-13T19:49:16.166Z,3.60
2022-10-13T19:51:44.300Z,4.03
2022-10-13T19:54:12.403Z,4.13
2022-10-13T19:56:40.579Z,3.47
2022-10-13T19:59:08.903Z,4.20
2022-10-13T20:01:40.286Z,3.70
2022-10-13T20:04:09.143Z,3.63
2022-10-13T20:06:39.261Z,3.67
2022-10-13T20:09:08.725Z,3.67
2022-10-13T20:11:36.999Z,3.73
2022-10-13T20:14:05.971Z,4.23
2022-10-13T20:16:34.989Z,3.90
2022-10-13T20:19:03.811Z,4.40
2022-10-13T20:21:32.085Z,3.67
2022-10-13T20:24:01.636Z,3.90
2022-10-13T20:26:29.791Z,4.03
2022-10-13T20:29:09.751Z,4.03
2022-10-13T20:31:39.674Z,3.70
2022-10-13T20:34:08.356Z,4.10
2022-10-13T20:36:39.032Z,3.83
2022-10-13T20:39:14.696Z,3.70
2022-10-13T20:41:42.801Z,4.33
2022-10-13T20:44:11.060Z,3.93
2022-10-13T20:46:39.261Z,3.83
2022-10-13T20:49:12.671Z,4.37
2022-10-13T20:51:42.895Z,4.43
2022-10-13T20:54:11.653Z,4.00
2022-10-13T20:56:41.516Z,3.53
2022-10-13T20:59:12.755Z,4.40
2022-10-13T21:01:40.940Z,3.93
2022-10-13T21:04:09.073Z,4.17
2022-10-13T21:06:37.299Z,4.13
2022-10-13T21:09:07.363Z,4.27
2022-10-13T21:11:36.545Z,4.43
2022-10-13T21:14:07.147Z,4.00
2022-10-13T21:16:36.720Z,4.03
2022-10-13T21:19:05.914Z,3.90
2022-10-13T21:21:36.314Z,4.83
2022-10-13T21:24:07.236Z,3.83
2022-10-13T21:26:36.481Z,4.40
2022-10-13T21:29:07.494Z,4.33
2022-10-13T21:31:37.269Z,4.43
2022-10-13T21:34:05.632Z,4.30
2022-10-13T21:36:34.530Z,4.20
2022-10-13T21:39:04.943Z,4.47
2022-10-13T21:41:33.166Z,4.70
2022-10-13T21:44:01.643Z,4.23
2022-10-13T21:46:33.332Z,4.27
2022-10-13T21:49:05.138Z,4.10
2022-10-13T21:51:35.633Z,4.17
2022-10-13T21:54:06.093Z,4.40
2022-10-13T21:56:34.648Z,5.27
2022-10-13T21:59:03.637Z,4.23
2022-10-13T22:01:33.544Z,4.53
2022-10-13T22:04:02.988Z,5.00
2022-10-13T22:06:32.937Z,4.90
2022-10-13T22:09:03.126Z,4.40
2022-10-13T22:11:32.979Z,4.50
2022-10-13T22:14:01.480Z,4.70
2022-10-13T22:16:33.067Z,4.77
2022-10-13T22:19:07.087Z,5.03
2022-10-13T22:21:37.450Z,4.63
2022-10-13T22:24:07.873Z,4.77
2022-10-13T22:26:38.580Z,4.87
2022-10-13T22:29:08.421Z,4.93
2022-10-13T22:31:38.034Z,4.90
2022-10-13T22:34:09.716Z,5.30
2022-10-13T22:36:41.057Z,4.90
2022-10-13T22:39:12.195Z,5.03
2022-10-13T22:41:43.364Z,5.07
2022-10-13T22:44:11.602Z,5.33
2022-10-13T22:46:41.928Z,5.50
2022-10-13T22:49:10.351Z,5.17
2022-10-13T22:51:38.790Z,5.03
2022-10-13T22:54:07.524Z,4.70
2022-10-13T22:56:36.238Z,5.17
2022-10-13T22:59:06.792Z,4.87
2022-10-13T23:01:35.261Z,4.33
2022-10-13T23:04:05.057Z,5.53
2022-10-13T23:06:35.568Z,5.33
2022-10-13T23:09:05.255Z,5.10
2022-10-13T23:11:33.413Z,5.40
2022-10-13T23:14:02.437Z,4.37
2022-10-13T23:16:31.032Z,4.83
2022-10-13T23:18:59.126Z,5.73
2022-10-13T23:21:30.684Z,5.13
2022-10-13T23:24:00.296Z,5.10
2022-10-13T23:26:29.768Z,5.50
2022-10-13T23:28:59.003Z,5.03
2022-10-13T23:31:28.630Z,5.10
2022-10-13T23:34:00.836Z,5.57
2022-10-13T23:36:31.934Z,5.07
2022-10-13T23:39:13.205Z,5.07
2022-10-13T23:41:41.472Z,4.87
2022-10-13T23:44:09.673Z,5.00
2022-10-13T23:46:38.041Z,5.40
2022-10-13T23:49:06.331Z,5.50
2022-10-13T23:51:36.159Z,5.50
2022-10-13T23:54:04.361Z,5.60
2022-10-13T23:56:32.694Z,6.07
2022-10-13T23:59:02.499Z,6.07
